sensor_id;sensor_type;location;lat;lon;timestamp;temperature;humidity
12229;DHT22;6177;52.402;9.800;2022-11-20T00:02:05;-2.00;77.90
12229;DHT22;6177;52.402;9.800;2022-11-20T00:04:49;-2.00;77.90
12229;DHT22;6177;52.402;9.800;2022-11-20T00:07:34;-2.00;78.00
12229;DHT22;6177;52.402;9.800;2022-11-20T00:10:19;-1.90;77.80
12229;DHT22;6177;52.402;9.800;2022-11-20T00:13:03;-1.90;78.20
12229;DHT22;6177;52.402;9.800;2022-11-20T00:15:48;-1.90;78.30
12229;DHT22;6177;52.402;9.800;2022-11-20T00:18:34;-1.80;78.50
12229;DHT22;6177;52.402;9.800;2022-11-20T00:21:24;-1.80;78.60
12229;DHT22;6177;52.402;9.800;2022-11-20T00:24:09;-1.70;78.70
12229;DHT22;6177;52.402;9.800;2022-11-20T00:26:55;-1.70;78.60
12229;DHT22;6177;52.402;9.800;2022-11-20T00:29:39;-1.60;78.60
12229;DHT22;6177;52.402;9.800;2022-11-20T00:32:24;-1.70;78.50
12229;DHT22;6177;52.402;9.800;2022-11-20T00:35:08;-1.60;78.50
12229;DHT22;6177;52.402;9.800;2022-11-20T00:37:53;-1.70;78.40
12229;DHT22;6177;52.402;9.800;2022-11-20T00:40:38;-1.70;78.30
12229;DHT22;6177;52.402;9.800;2022-11-20T00:43:22;-1.70;78.30
12229;DHT22;6177;52.402;9.800;2022-11-20T00:46:13;-1.70;78.30
12229;DHT22;6177;52.402;9.800;2022-11-20T00:48:58;-1.70;78.20
12229;DHT22;6177;52.402;9.800;2022-11-20T00:51:43;-1.70;78.20
12229;DHT22;6177;52.402;9.800;2022-11-20T00:54:27;-1.60;78.20
12229;DHT22;6177;52.402;9.800;2022-11-20T00:57:12;-1.60;78.10
12229;DHT22;6177;52.402;9.800;2022-11-20T00:59:57;-1.60;78.10
12229;DHT22;6177;52.402;9.800;2022-11-20T01:02:41;-1.60;78.10
12229;DHT22;6177;52.402;9.800;2022-11-20T01:05:26;-1.70;78.10
12229;DHT22;6177;52.402;9.800;2022-11-20T01:08:11;-1.70;78.10
12229;DHT22;6177;52.402;9.800;2022-11-20T01:11:02;-1.70;78.10
12229;DHT22;6177;52.402;9.800;2022-11-20T01:13:48;-1.70;78.10
12229;DHT22;6177;52.402;9.800;2022-11-20T01:16:39;-1.70;77.80
12229;DHT22;6177;52.402;9.800;2022-11-20T01:19:24;-1.60;77.70
12229;DHT22;6177;52.402;9.800;2022-11-20T01:22:08;-1.70;77.50
12229;DHT22;6177;52.402;9.800;2022-11-20T01:24:53;-1.70;77.60
12229;DHT22;6177;52.402;9.800;2022-11-20T01:27:38;-1.70;77.60
12229;DHT22;6177;52.402;9.800;2022-11-20T01:30:22;-1.60;77.40
12229;DHT22;6177;52.402;9.800;2022-11-20T01:33:07;-1.60;77.10
12229;DHT22;6177;52.402;9.800;2022-11-20T01:35:52;-1.70;77.00
12229;DHT22;6177;52.402;9.800;2022-11-20T01:38:37;-1.70;77.00
12229;DHT22;6177;52.402;9.800;2022-11-20T01:41:23;-1.70;77.00
12229;DHT22;6177;52.402;9.800;2022-11-20T01:47:33;-1.70;77.20
12229;DHT22;6177;52.402;9.800;2022-11-20T01:50:22;-1.70;77.20
12229;DHT22;6177;52.402;9.800;2022-11-20T01:53:13;-1.60;77.20
12229;DHT22;6177;52.402;9.800;2022-11-20T01:56:00;-1.60;77.10
12229;DHT22;6177;52.402;9.800;2022-11-20T01:58:50;-1.60;76.80
12229;DHT22;6177;52.402;9.800;2022-11-20T02:01:37;-1.60;76.70
12229;DHT22;6177;52.402;9.800;2022-11-20T02:04:23;-1.60;76.60
12229;DHT22;6177;52.402;9.800;2022-11-20T02:07:08;-1.60;76.70
12229;DHT22;6177;52.402;9.800;2022-11-20T02:09:53;-1.60;76.90
12229;DHT22;6177;52.402;9.800;2022-11-20T02:12:38;-1.60;77.00
12229;DHT22;6177;52.402;9.800;2022-11-20T02:15:41;-1.50;77.00
12229;DHT22;6177;52.402;9.800;2022-11-20T02:18:26;-1.50;77.10
12229;DHT22;6177;52.402;9.800;2022-11-20T02:24:17;-1.30;77.00
12229;DHT22;6177;52.402;9.800;2022-11-20T02:27:09;-1.20;76.90
12229;DHT22;6177;52.402;9.800;2022-11-20T02:29:58;-1.20;76.70
12229;DHT22;6177;52.402;9.800;2022-11-20T02:32:43;-1.20;76.50
12229;DHT22;6177;52.402;9.800;2022-11-20T02:38:13;-1.10;76.40
12229;DHT22;6177;52.402;9.800;2022-11-20T02:40:58;-1.10;76.50
12229;DHT22;6177;52.402;9.800;2022-11-20T02:43:43;-1.00;76.40
12229;DHT22;6177;52.402;9.800;2022-11-20T02:46:27;-0.90;76.30
12229;DHT22;6177;52.402;9.800;2022-11-20T02:49:12;-0.80;76.20
12229;DHT22;6177;52.402;9.800;2022-11-20T02:51:57;-0.80;76.00
12229;DHT22;6177;52.402;9.800;2022-11-20T02:54:41;-0.70;75.90
12229;DHT22;6177;52.402;9.800;2022-11-20T02:57:26;-0.70;75.60
12229;DHT22;6177;52.402;9.800;2022-11-20T03:00:11;-0.60;75.50
12229;DHT22;6177;52.402;9.800;2022-11-20T03:02:56;-0.70;75.50
12229;DHT22;6177;52.402;9.800;2022-11-20T03:05:44;-0.70;75.50
12229;DHT22;6177;52.402;9.800;2022-11-20T03:08:29;-0.70;75.60
12229;DHT22;6177;52.402;9.800;2022-11-20T03:11:13;-0.70;75.80
12229;DHT22;6177;52.402;9.800;2022-11-20T03:14:02;-0.70;75.60
12229;DHT22;6177;52.402;9.800;2022-11-20T03:16:47;-0.70;75.60
12229;DHT22;6177;52.402;9.800;2022-11-20T03:19:32;-0.70;75.70
12229;DHT22;6177;52.402;9.800;2022-11-20T03:22:16;-0.70;75.90
12229;DHT22;6177;52.402;9.800;2022-11-20T03:25:01;-0.70;76.00
12229;DHT22;6177;52.402;9.800;2022-11-20T03:27:45;-0.60;76.10
12229;DHT22;6177;52.402;9.800;2022-11-20T03:30:30;-0.60;76.10
12229;DHT22;6177;52.402;9.800;2022-11-20T03:33:14;-0.60;76.10
12229;DHT22;6177;52.402;9.800;2022-11-20T03:36:04;-0.50;76.10
12229;DHT22;6177;52.402;9.800;2022-11-20T03:38:49;-0.50;76.10
12229;DHT22;6177;52.402;9.800;2022-11-20T03:41:41;-0.50;75.90
12229;DHT22;6177;52.402;9.800;2022-11-20T03:44:26;-0.50;75.70
12229;DHT22;6177;52.402;9.800;2022-11-20T03:47:10;-0.50;75.90
12229;DHT22;6177;52.402;9.800;2022-11-20T03:49:55;-0.50;75.90
12229;DHT22;6177;52.402;9.800;2022-11-20T03:52:40;-0.60;75.90
12229;DHT22;6177;52.402;9.800;2022-11-20T03:55:24;-0.60;75.90
12229;DHT22;6177;52.402;9.800;2022-11-20T03:58:10;-0.60;76.00
12229;DHT22;6177;52.402;9.800;2022-11-20T04:00:54;-0.60;76.00
12229;DHT22;6177;52.402;9.800;2022-11-20T04:03:40;-0.60;75.90
12229;DHT22;6177;52.402;9.800;2022-11-20T04:06:28;-0.50;75.70
12229;DHT22;6177;52.402;9.800;2022-11-20T04:09:13;-0.50;75.70
12229;DHT22;6177;52.402;9.800;2022-11-20T04:11:58;-0.40;75.90
12229;DHT22;6177;52.402;9.800;2022-11-20T04:14:42;-0.40;75.80
12229;DHT22;6177;52.402;9.800;2022-11-20T04:17:27;-0.30;76.10
12229;DHT22;6177;52.402;9.800;2022-11-20T04:20:12;-0.30;75.60
12229;DHT22;6177;52.402;9.800;2022-11-20T04:22:56;-0.30;75.60
12229;DHT22;6177;52.402;9.800;2022-11-20T04:25:41;-0.30;75.60
12229;DHT22;6177;52.402;9.800;2022-11-20T04:28:25;-0.30;75.60
12229;DHT22;6177;52.402;9.800;2022-11-20T04:31:16;-0.30;75.40
12229;DHT22;6177;52.402;9.800;2022-11-20T04:34:02;-0.30;75.40
12229;DHT22;6177;52.402;9.800;2022-11-20T04:36:47;-0.30;75.60
12229;DHT22;6177;52.402;9.800;2022-11-20T04:39:31;-0.20;75.60
12229;DHT22;6177;52.402;9.800;2022-11-20T04:42:16;-0.20;75.50
12229;DHT22;6177;52.402;9.800;2022-11-20T04:45:12;-0.10;75.00
12229;DHT22;6177;52.402;9.800;2022-11-20T04:47:57;-0.10;74.90
12229;DHT22;6177;52.402;9.800;2022-11-20T04:50:41;-0.10;74.90
12229;DHT22;6177;52.402;9.800;2022-11-20T04:53:26;-0.10;74.90
12229;DHT22;6177;52.402;9.800;2022-11-20T04:56:12;-0.10;75.20
12229;DHT22;6177;52.402;9.800;2022-11-20T04:59:00;-0.10;74.90
12229;DHT22;6177;52.402;9.800;2022-11-20T05:01:45;-0.10;74.80
12229;DHT22;6177;52.402;9.800;2022-11-20T05:04:30;-0.10;74.70
12229;DHT22;6177;52.402;9.800;2022-11-20T05:07:15;-0.10;74.80
12229;DHT22;6177;52.402;9.800;2022-11-20T05:09:59;-0.10;75.00
12229;DHT22;6177;52.402;9.800;2022-11-20T05:12:44;-0.10;75.00
12229;DHT22;6177;52.402;9.800;2022-11-20T05:15:28;-0.10;75.10
12229;DHT22;6177;52.402;9.800;2022-11-20T05:18:13;-0.10;75.10
12229;DHT22;6177;52.402;9.800;2022-11-20T05:20:58;-0.10;75.10
12229;DHT22;6177;52.402;9.800;2022-11-20T05:23:43;-0.10;75.00
12229;DHT22;6177;52.402;9.800;2022-11-20T05:26:27;-0.10;75.00
12229;DHT22;6177;52.402;9.800;2022-11-20T05:29:12;-0.10;75.00
12229;DHT22;6177;52.402;9.800;2022-11-20T05:31:56;-0.10;75.10
12229;DHT22;6177;52.402;9.800;2022-11-20T05:34:41;0.00;75.10
12229;DHT22;6177;52.402;9.800;2022-11-20T05:37:26;0.00;75.10
12229;DHT22;6177;52.402;9.800;2022-11-20T05:40:11;0.00;75.00
12229;DHT22;6177;52.402;9.800;2022-11-20T05:42:56;0.00;74.60
12229;DHT22;6177;52.402;9.800;2022-11-20T05:45:40;0.00;74.80
12229;DHT22;6177;52.402;9.800;2022-11-20T05:48:25;0.00;74.80
12229;DHT22;6177;52.402;9.800;2022-11-20T05:51:12;0.00;74.80
12229;DHT22;6177;52.402;9.800;2022-11-20T05:53:57;0.00;74.80
12229;DHT22;6177;52.402;9.800;2022-11-20T05:56:42;-0.10;74.80
12229;DHT22;6177;52.402;9.800;2022-11-20T05:59:27;-0.10;74.90
12229;DHT22;6177;52.402;9.800;2022-11-20T06:02:11;-0.10;74.90
12229;DHT22;6177;52.402;9.800;2022-11-20T06:04:56;0.00;74.90
12229;DHT22;6177;52.402;9.800;2022-11-20T06:07:41;0.00;74.90
12229;DHT22;6177;52.402;9.800;2022-11-20T06:10:25;0.00;74.90
12229;DHT22;6177;52.402;9.800;2022-11-20T06:13:10;0.10;74.90
12229;DHT22;6177;52.402;9.800;2022-11-20T06:15:55;0.10;74.60
12229;DHT22;6177;52.402;9.800;2022-11-20T06:18:39;0.10;74.60
12229;DHT22;6177;52.402;9.800;2022-11-20T06:21:24;0.10;74.60
12229;DHT22;6177;52.402;9.800;2022-11-20T06:24:09;0.10;74.60
12229;DHT22;6177;52.402;9.800;2022-11-20T06:26:54;0.10;74.60
12229;DHT22;6177;52.402;9.800;2022-11-20T06:29:39;0.10;74.70
12229;DHT22;6177;52.402;9.800;2022-11-20T06:32:23;0.20;74.60
12229;DHT22;6177;52.402;9.800;2022-11-20T06:35:08;0.10;74.50
12229;DHT22;6177;52.402;9.800;2022-11-20T06:37:53;0.10;74.50
12229;DHT22;6177;52.402;9.800;2022-11-20T06:40:40;0.10;74.30
12229;DHT22;6177;52.402;9.800;2022-11-20T06:43:26;0.10;74.20
12229;DHT22;6177;52.402;9.800;2022-11-20T06:46:13;0.10;74.50
12229;DHT22;6177;52.402;9.800;2022-11-20T06:48:58;0.20;74.30
12229;DHT22;6177;52.402;9.800;2022-11-20T06:51:43;0.20;74.00
12229;DHT22;6177;52.402;9.800;2022-11-20T06:54:27;0.10;73.90
12229;DHT22;6177;52.402;9.800;2022-11-20T06:57:12;0.10;74.00
12229;DHT22;6177;52.402;9.800;2022-11-20T06:59:56;0.00;74.10
12229;DHT22;6177;52.402;9.800;2022-11-20T07:02:41;0.00;74.30
12229;DHT22;6177;52.402;9.800;2022-11-20T07:05:26;0.00;74.30
12229;DHT22;6177;52.402;9.800;2022-11-20T07:08:11;0.00;74.20
12229;DHT22;6177;52.402;9.800;2022-11-20T07:11:01;-0.10;74.30
12229;DHT22;6177;52.402;9.800;2022-11-20T07:13:45;-0.10;74.60
12229;DHT22;6177;52.402;9.800;2022-11-20T07:16:30;-0.10;74.70
12229;DHT22;6177;52.402;9.800;2022-11-20T07:19:14;-0.10;74.80
12229;DHT22;6177;52.402;9.800;2022-11-20T07:21:59;-0.10;75.00
12229;DHT22;6177;52.402;9.800;2022-11-20T07:24:43;-0.10;75.10
12229;DHT22;6177;52.402;9.800;2022-11-20T07:27:28;-0.10;75.00
12229;DHT22;6177;52.402;9.800;2022-11-20T07:30:14;-0.10;74.90
12229;DHT22;6177;52.402;9.800;2022-11-20T07:32:58;0.00;74.70
12229;DHT22;6177;52.402;9.800;2022-11-20T07:35:43;-0.10;74.90
12229;DHT22;6177;52.402;9.800;2022-11-20T07:38:28;0.00;74.90
12229;DHT22;6177;52.402;9.800;2022-11-20T07:41:12;0.00;74.80
12229;DHT22;6177;52.402;9.800;2022-11-20T07:43:57;0.00;74.50
12229;DHT22;6177;52.402;9.800;2022-11-20T07:46:41;0.10;74.20
12229;DHT22;6177;52.402;9.800;2022-11-20T07:49:26;0.00;74.20
12229;DHT22;6177;52.402;9.800;2022-11-20T07:52:11;0.00;74.10
12229;DHT22;6177;52.402;9.800;2022-11-20T07:54:55;0.10;74.30
12229;DHT22;6177;52.402;9.800;2022-11-20T07:57:40;0.10;74.30
12229;DHT22;6177;52.402;9.800;2022-11-20T08:00:26;0.20;74.40
12229;DHT22;6177;52.402;9.800;2022-11-20T08:03:11;0.30;74.30
12229;DHT22;6177;52.402;9.800;2022-11-20T08:05:58;0.30;74.20
12229;DHT22;6177;52.402;9.800;2022-11-20T08:08:44;0.30;74.00
12229;DHT22;6177;52.402;9.800;2022-11-20T08:11:28;0.30;74.00
12229;DHT22;6177;52.402;9.800;2022-11-20T08:14:31;0.40;74.10
12229;DHT22;6177;52.402;9.800;2022-11-20T08:17:16;0.50;74.10
12229;DHT22;6177;52.402;9.800;2022-11-20T08:20:00;0.60;73.80
12229;DHT22;6177;52.402;9.800;2022-11-20T08:22:45;0.50;73.80
12229;DHT22;6177;52.402;9.800;2022-11-20T08:25:30;0.60;73.60
12229;DHT22;6177;52.402;9.800;2022-11-20T08:28:14;0.60;73.40
12229;DHT22;6177;52.402;9.800;2022-11-20T08:31:00;0.60;73.10
12229;DHT22;6177;52.402;9.800;2022-11-20T08:33:45;0.70;73.00
12229;DHT22;6177;52.402;9.800;2022-11-20T08:36:33;0.70;73.10
12229;DHT22;6177;52.402;9.800;2022-11-20T08:39:18;0.70;73.00
12229;DHT22;6177;52.402;9.800;2022-11-20T08:42:06;0.70;72.80
12229;DHT22;6177;52.402;9.800;2022-11-20T08:44:52;0.70;72.80
12229;DHT22;6177;52.402;9.800;2022-11-20T08:47:36;0.70;73.10
12229;DHT22;6177;52.402;9.800;2022-11-20T08:50:21;0.90;73.30
12229;DHT22;6177;52.402;9.800;2022-11-20T08:53:05;1.00;73.20
12229;DHT22;6177;52.402;9.800;2022-11-20T08:55:50;1.20;72.80
12229;DHT22;6177;52.402;9.800;2022-11-20T08:58:35;1.20;72.30
12229;DHT22;6177;52.402;9.800;2022-11-20T09:01:20;1.30;72.30
12229;DHT22;6177;52.402;9.800;2022-11-20T09:04:05;1.40;72.30
12229;DHT22;6177;52.402;9.800;2022-11-20T09:06:50;1.50;72.30
12229;DHT22;6177;52.402;9.800;2022-11-20T09:09:35;1.70;72.20
12229;DHT22;6177;52.402;9.800;2022-11-20T09:12:19;1.80;72.10
12229;DHT22;6177;52.402;9.800;2022-11-20T09:15:04;1.90;72.00
12229;DHT22;6177;52.402;9.800;2022-11-20T09:17:57;1.90;71.70
12229;DHT22;6177;52.402;9.800;2022-11-20T09:20:42;2.00;71.70
12229;DHT22;6177;52.402;9.800;2022-11-20T09:23:27;2.00;71.50
12229;DHT22;6177;52.402;9.800;2022-11-20T09:26:14;2.00;71.20
12229;DHT22;6177;52.402;9.800;2022-11-20T09:28:59;2.00;71.10
12229;DHT22;6177;52.402;9.800;2022-11-20T09:31:44;2.00;71.00
12229;DHT22;6177;52.402;9.800;2022-11-20T09:34:29;2.10;70.60
12229;DHT22;6177;52.402;9.800;2022-11-20T09:37:13;2.10;70.40
12229;DHT22;6177;52.402;9.800;2022-11-20T09:39:58;2.20;69.60
12229;DHT22;6177;52.402;9.800;2022-11-20T09:43:10;2.20;69.50
12229;DHT22;6177;52.402;9.800;2022-11-20T09:46:17;2.20;69.60
12229;DHT22;6177;52.402;9.800;2022-11-20T09:52:31;2.60;68.80
12229;DHT22;6177;52.402;9.800;2022-11-20T09:55:17;2.70;68.40
12229;DHT22;6177;52.402;9.800;2022-11-20T09:58:05;2.80;67.90
12229;DHT22;6177;52.402;9.800;2022-11-20T10:00:51;2.80;68.00
12229;DHT22;6177;52.402;9.800;2022-11-20T10:03:58;3.00;68.00
12229;DHT22;6177;52.402;9.800;2022-11-20T10:06:48;3.20;67.50
12229;DHT22;6177;52.402;9.800;2022-11-20T10:09:36;3.20;67.40
12229;DHT22;6177;52.402;9.800;2022-11-20T10:15:31;3.40;66.90
12229;DHT22;6177;52.402;9.800;2022-11-20T10:18:29;3.50;66.20
12229;DHT22;6177;52.402;9.800;2022-11-20T10:27:44;3.60;65.50
12229;DHT22;6177;52.402;9.800;2022-11-20T10:30:24;3.60;65.30
12229;DHT22;6177;52.402;9.800;2022-11-20T10:33:16;3.60;64.70
12229;DHT22;6177;52.402;9.800;2022-11-20T10:36:09;3.60;64.60
12229;DHT22;6177;52.402;9.800;2022-11-20T10:39:46;3.60;64.60
12229;DHT22;6177;52.402;9.800;2022-11-20T10:42:10;3.70;63.70
12229;DHT22;6177;52.402;9.800;2022-11-20T10:45:09;3.60;63.60
12229;DHT22;6177;52.402;9.800;2022-11-20T10:48:12;3.70;63.30
12229;DHT22;6177;52.402;9.800;2022-11-20T10:54:39;3.70;62.60
12229;DHT22;6177;52.402;9.800;2022-11-20T11:00:26;3.80;62.10
12229;DHT22;6177;52.402;9.800;2022-11-20T11:03:27;3.90;61.20
12229;DHT22;6177;52.402;9.800;2022-11-20T11:06:37;3.90;61.10
12229;DHT22;6177;52.402;9.800;2022-11-20T11:09:34;3.90;61.50
12229;DHT22;6177;52.402;9.800;2022-11-20T11:12:22;4.00;61.50
12229;DHT22;6177;52.402;9.800;2022-11-20T11:15:14;4.00;60.70
12229;DHT22;6177;52.402;9.800;2022-11-20T11:17:59;4.00;60.20
12229;DHT22;6177;52.402;9.800;2022-11-20T11:20:50;4.00;58.20
12229;DHT22;6177;52.402;9.800;2022-11-20T11:23:36;3.90;58.60
12229;DHT22;6177;52.402;9.800;2022-11-20T11:26:23;3.80;60.00
12229;DHT22;6177;52.402;9.800;2022-11-20T11:29:17;3.80;60.30
12229;DHT22;6177;52.402;9.800;2022-11-20T11:32:13;3.80;60.10
12229;DHT22;6177;52.402;9.800;2022-11-20T11:35:03;3.90;59.80
12229;DHT22;6177;52.402;9.800;2022-11-20T11:37:48;3.80;60.30
12229;DHT22;6177;52.402;9.800;2022-11-20T11:40:35;3.70;60.40
12229;DHT22;6177;52.402;9.800;2022-11-20T11:43:23;3.70;60.40
12229;DHT22;6177;52.402;9.800;2022-11-20T11:46:30;3.70;60.20
12229;DHT22;6177;52.402;9.800;2022-11-20T11:49:17;3.70;60.30
12229;DHT22;6177;52.402;9.800;2022-11-20T11:52:13;3.70;60.30
12229;DHT22;6177;52.402;9.800;2022-11-20T11:55:02;3.70;60.20
12229;DHT22;6177;52.402;9.800;2022-11-20T12:08:05;3.50;60.30
12229;DHT22;6177;52.402;9.800;2022-11-20T12:11:00;3.40;60.90
12229;DHT22;6177;52.402;9.800;2022-11-20T12:13:55;3.50;61.40
12229;DHT22;6177;52.402;9.800;2022-11-20T12:16:42;3.70;61.20
12229;DHT22;6177;52.402;9.800;2022-11-20T12:19:33;3.70;61.10
12229;DHT22;6177;52.402;9.800;2022-11-20T12:25:25;3.70;60.60
12229;DHT22;6177;52.402;9.800;2022-11-20T12:28:26;3.70;60.60
12229;DHT22;6177;52.402;9.800;2022-11-20T12:31:37;3.80;60.80
12229;DHT22;6177;52.402;9.800;2022-11-20T12:38:01;3.90;59.90
12229;DHT22;6177;52.402;9.800;2022-11-20T13:00:21;3.90;60.10
12229;DHT22;6177;52.402;9.800;2022-11-20T13:03:37;3.90;60.00
12229;DHT22;6177;52.402;9.800;2022-11-20T13:06:24;3.90;60.40
12229;DHT22;6177;52.402;9.800;2022-11-20T13:09:13;3.90;60.60
12229;DHT22;6177;52.402;9.800;2022-11-20T13:17:53;3.80;60.80
12229;DHT22;6177;52.402;9.800;2022-11-20T13:20:46;3.80;61.20
12229;DHT22;6177;52.402;9.800;2022-11-20T13:23:30;3.90;61.00
12229;DHT22;6177;52.402;9.800;2022-11-20T13:26:23;3.80;61.20
12229;DHT22;6177;52.402;9.800;2022-11-20T13:29:12;3.90;61.30
12229;DHT22;6177;52.402;9.800;2022-11-20T13:35:03;3.90;61.00
12229;DHT22;6177;52.402;9.800;2022-11-20T13:37:59;3.80;61.20
12229;DHT22;6177;52.402;9.800;2022-11-20T13:40:58;3.80;61.30
12229;DHT22;6177;52.402;9.800;2022-11-20T13:43:42;3.80;61.60
12229;DHT22;6177;52.402;9.800;2022-11-20T13:46:37;3.80;61.60
12229;DHT22;6177;52.402;9.800;2022-11-20T13:49:38;3.80;61.60
12229;DHT22;6177;52.402;9.800;2022-11-20T13:57:04;3.90;61.80
12229;DHT22;6177;52.402;9.800;2022-11-20T14:02:27;3.90;62.10
12229;DHT22;6177;52.402;9.800;2022-11-20T14:05:23;3.90;62.20
12229;DHT22;6177;52.402;9.800;2022-11-20T14:08:17;3.90;62.20
12229;DHT22;6177;52.402;9.800;2022-11-20T14:14:15;3.80;62.40
12229;DHT22;6177;52.402;9.800;2022-11-20T14:20:14;3.90;62.40
12229;DHT22;6177;52.402;9.800;2022-11-20T14:22:59;3.80;62.00
12229;DHT22;6177;52.402;9.800;2022-11-20T14:25:45;3.80;62.30
12229;DHT22;6177;52.402;9.800;2022-11-20T14:28:30;3.80;62.50
12229;DHT22;6177;52.402;9.800;2022-11-20T14:31:23;3.70;62.40
12229;DHT22;6177;52.402;9.800;2022-11-20T14:34:18;3.70;62.60
12229;DHT22;6177;52.402;9.800;2022-11-20T14:37:09;3.70;62.80
12229;DHT22;6177;52.402;9.800;2022-11-20T14:39:55;3.70;62.80
12229;DHT22;6177;52.402;9.800;2022-11-20T14:42:43;3.70;62.90
12229;DHT22;6177;52.402;9.800;2022-11-20T14:45:28;3.70;62.80
12229;DHT22;6177;52.402;9.800;2022-11-20T14:48:13;3.50;62.80
12229;DHT22;6177;52.402;9.800;2022-11-20T14:50:57;3.40;63.00
12229;DHT22;6177;52.402;9.800;2022-11-20T14:53:42;3.30;63.20
12229;DHT22;6177;52.402;9.800;2022-11-20T14:56:26;3.20;63.30
12229;DHT22;6177;52.402;9.800;2022-11-20T14:59:11;3.20;63.60
12229;DHT22;6177;52.402;9.800;2022-11-20T15:02:10;3.10;63.80
12229;DHT22;6177;52.402;9.800;2022-11-20T15:05:00;3.00;63.90
12229;DHT22;6177;52.402;9.800;2022-11-20T15:07:50;3.00;64.20
12229;DHT22;6177;52.402;9.800;2022-11-20T15:10:35;2.90;64.50
12229;DHT22;6177;52.402;9.800;2022-11-20T15:13:29;2.90;64.60
12229;DHT22;6177;52.402;9.800;2022-11-20T15:16:24;2.90;64.70
12229;DHT22;6177;52.402;9.800;2022-11-20T15:19:19;3.00;64.80
12229;DHT22;6177;52.402;9.800;2022-11-20T15:22:07;3.00;64.90
12229;DHT22;6177;52.402;9.800;2022-11-20T15:24:54;3.00;64.80
12229;DHT22;6177;52.402;9.800;2022-11-20T15:27:39;3.00;64.80
12229;DHT22;6177;52.402;9.800;2022-11-20T15:30:23;3.00;64.90
12229;DHT22;6177;52.402;9.800;2022-11-20T15:33:09;3.00;65.10
12229;DHT22;6177;52.402;9.800;2022-11-20T15:35:54;3.00;65.20
12229;DHT22;6177;52.402;9.800;2022-11-20T15:38:38;3.10;65.30
12229;DHT22;6177;52.402;9.800;2022-11-20T15:41:23;3.10;65.40
12229;DHT22;6177;52.402;9.800;2022-11-20T15:44:07;3.10;65.50
12229;DHT22;6177;52.402;9.800;2022-11-20T15:46:52;3.10;65.60
12229;DHT22;6177;52.402;9.800;2022-11-20T15:49:37;3.00;65.70
12229;DHT22;6177;52.402;9.800;2022-11-20T15:52:21;2.90;65.70
12229;DHT22;6177;52.402;9.800;2022-11-20T15:55:10;2.80;65.70
12229;DHT22;6177;52.402;9.800;2022-11-20T15:57:54;2.70;66.00
12229;DHT22;6177;52.402;9.800;2022-11-20T16:00:39;2.60;66.30
12229;DHT22;6177;52.402;9.800;2022-11-20T16:03:24;2.60;66.60
12229;DHT22;6177;52.402;9.800;2022-11-20T16:06:09;2.50;66.90
12229;DHT22;6177;52.402;9.800;2022-11-20T16:08:53;2.40;67.20
12229;DHT22;6177;52.402;9.800;2022-11-20T16:11:38;2.40;67.50
12229;DHT22;6177;52.402;9.800;2022-11-20T16:14:22;2.30;67.70
12229;DHT22;6177;52.402;9.800;2022-11-20T16:17:25;2.30;67.90
12229;DHT22;6177;52.402;9.800;2022-11-20T16:20:26;2.20;67.90
12229;DHT22;6177;52.402;9.800;2022-11-20T16:23:11;2.10;68.00
12229;DHT22;6177;52.402;9.800;2022-11-20T16:25:55;2.00;68.20
12229;DHT22;6177;52.402;9.800;2022-11-20T16:28:40;1.90;68.50
12229;DHT22;6177;52.402;9.800;2022-11-20T16:31:25;1.80;68.80
12229;DHT22;6177;52.402;9.800;2022-11-20T16:34:09;1.60;69.10
12229;DHT22;6177;52.402;9.800;2022-11-20T16:36:54;1.50;69.40
12229;DHT22;6177;52.402;9.800;2022-11-20T16:39:39;1.40;69.90
12229;DHT22;6177;52.402;9.800;2022-11-20T16:42:23;1.30;70.20
12229;DHT22;6177;52.402;9.800;2022-11-20T16:45:08;1.20;70.40
12229;DHT22;6177;52.402;9.800;2022-11-20T16:47:53;1.20;70.80
12229;DHT22;6177;52.402;9.800;2022-11-20T16:50:49;1.10;71.10
12229;DHT22;6177;52.402;9.800;2022-11-20T16:53:33;1.10;71.40
12229;DHT22;6177;52.402;9.800;2022-11-20T16:56:19;1.10;71.70
12229;DHT22;6177;52.402;9.800;2022-11-20T16:59:04;1.20;71.80
12229;DHT22;6177;52.402;9.800;2022-11-20T17:01:50;1.20;72.00
12229;DHT22;6177;52.402;9.800;2022-11-20T17:04:35;1.30;72.20
12229;DHT22;6177;52.402;9.800;2022-11-20T17:07:20;1.30;72.20
12229;DHT22;6177;52.402;9.800;2022-11-20T17:10:04;1.30;72.20
12229;DHT22;6177;52.402;9.800;2022-11-20T17:12:49;1.30;72.30
12229;DHT22;6177;52.402;9.800;2022-11-20T17:15:34;1.30;72.30
12229;DHT22;6177;52.402;9.800;2022-11-20T17:18:18;1.30;72.30
12229;DHT22;6177;52.402;9.800;2022-11-20T17:21:04;1.20;72.40
12229;DHT22;6177;52.402;9.800;2022-11-20T17:23:49;1.20;72.50
12229;DHT22;6177;52.402;9.800;2022-11-20T17:26:34;1.10;72.60
12229;DHT22;6177;52.402;9.800;2022-11-20T17:29:18;1.10;72.70
12229;DHT22;6177;52.402;9.800;2022-11-20T17:32:07;1.10;72.70
12229;DHT22;6177;52.402;9.800;2022-11-20T17:34:52;1.10;72.90
12229;DHT22;6177;52.402;9.800;2022-11-20T17:37:36;1.00;73.00
12229;DHT22;6177;52.402;9.800;2022-11-20T17:40:21;0.90;73.20
12229;DHT22;6177;52.402;9.800;2022-11-20T17:43:05;0.90;73.40
12229;DHT22;6177;52.402;9.800;2022-11-20T17:45:50;0.90;73.60
12229;DHT22;6177;52.402;9.800;2022-11-20T17:48:35;0.90;73.60
12229;DHT22;6177;52.402;9.800;2022-11-20T17:51:23;0.90;73.70
12229;DHT22;6177;52.402;9.800;2022-11-20T17:54:09;0.90;73.70
12229;DHT22;6177;52.402;9.800;2022-11-20T17:56:54;0.90;73.70
12229;DHT22;6177;52.402;9.800;2022-11-20T17:59:57;0.90;73.80
12229;DHT22;6177;52.402;9.800;2022-11-20T18:02:42;0.90;74.00
12229;DHT22;6177;52.402;9.800;2022-11-20T18:05:26;0.90;74.00
12229;DHT22;6177;52.402;9.800;2022-11-20T18:08:11;0.90;74.40
12229;DHT22;6177;52.402;9.800;2022-11-20T18:10:55;1.00;74.00
12229;DHT22;6177;52.402;9.800;2022-11-20T18:13:40;1.00;74.10
12229;DHT22;6177;52.402;9.800;2022-11-20T18:16:52;1.00;74.10
12229;DHT22;6177;52.402;9.800;2022-11-20T18:19:39;1.00;74.20
12229;DHT22;6177;52.402;9.800;2022-11-20T18:22:24;1.10;74.30
12229;DHT22;6177;52.402;9.800;2022-11-20T18:25:08;1.10;74.30
12229;DHT22;6177;52.402;9.800;2022-11-20T18:27:53;1.20;74.30
12229;DHT22;6177;52.402;9.800;2022-11-20T18:30:38;1.20;74.20
12229;DHT22;6177;52.402;9.800;2022-11-20T18:33:23;1.20;74.20
12229;DHT22;6177;52.402;9.800;2022-11-20T18:36:16;1.30;74.20
12229;DHT22;6177;52.402;9.800;2022-11-20T18:39:02;1.30;74.10
12229;DHT22;6177;52.402;9.800;2022-11-20T18:41:46;1.30;74.00
12229;DHT22;6177;52.402;9.800;2022-11-20T18:44:49;1.30;74.00
12229;DHT22;6177;52.402;9.800;2022-11-20T18:47:35;1.30;74.10
12229;DHT22;6177;52.402;9.800;2022-11-20T18:50:20;1.40;74.00
12229;DHT22;6177;52.402;9.800;2022-11-20T18:53:06;1.40;74.00
12229;DHT22;6177;52.402;9.800;2022-11-20T18:55:50;1.50;73.90
12229;DHT22;6177;52.402;9.800;2022-11-20T18:58:35;1.60;73.80
12229;DHT22;6177;52.402;9.800;2022-11-20T19:01:19;1.60;73.70
12229;DHT22;6177;52.402;9.800;2022-11-20T19:04:10;1.70;73.80
12229;DHT22;6177;52.402;9.800;2022-11-20T19:06:54;1.80;73.70
12229;DHT22;6177;52.402;9.800;2022-11-20T19:09:44;1.80;73.60
12229;DHT22;6177;52.402;9.800;2022-11-20T19:12:29;1.80;73.40
12229;DHT22;6177;52.402;9.800;2022-11-20T19:15:13;1.80;73.30
12229;DHT22;6177;52.402;9.800;2022-11-20T19:17:58;1.80;73.30
12229;DHT22;6177;52.402;9.800;2022-11-20T19:20:44;1.80;73.20
12229;DHT22;6177;52.402;9.800;2022-11-20T19:23:28;1.80;73.20
12229;DHT22;6177;52.402;9.800;2022-11-20T19:26:13;1.80;73.30
12229;DHT22;6177;52.402;9.800;2022-11-20T19:28:57;1.80;73.40
12229;DHT22;6177;52.402;9.800;2022-11-20T19:31:42;1.80;73.40
12229;DHT22;6177;52.402;9.800;2022-11-20T19:34:27;1.80;73.40